Lebanon, MO

5:06 AM CST on December 15, 2019 (GMT -0600)
South Washington Ave near Elm | | Change Station
Active Advisory: Winter Weather Advisory

Elev 1267 ft 37.68 °N, 92.66 °W | Updated 1 minute ago

Overcast
Overcast
27.5 °F
Feels Like 28 °F
N
1
Wind Variable Wind from SSW
Gusts 2.0 mph

Today
High -- | Low -- °F
--% Chance of Precip.
Yesterday
High -- | Low -- °F
Precip. -- in
Pressure 30.01 in
Visibility 10.0 miles
Clouds Overcast 1000 ft
Windchill 28 °F
Dew Point 22 °F
Humidity 81%
Rainfall 0.00 in
Snow Depth Not available.
7:18 AM 4:53 PM
Waning Gibbous, 88% visible
METAR KTBN 151056Z AUTO 07008KT 10SM OVC010 M02/M05 A2997 RMK AO2 SLP162 T10221047 $
Pressure 30.01 in
Visibility 10.0 miles
Clouds Overcast 1000 ft
Windchill 28 °F
Dew Point 22 °F
Humidity 81%
Rainfall 0.00 in
Snow Depth Not available.
7:18 AM 4:53 PM
Waning Gibbous, 88% visible
METAR KTBN 151056Z AUTO 07008KT 10SM OVC010 M02/M05 A2997 RMK AO2 SLP162 T10221047 $

Get Your Daily Forecast Email!

Thanks for signing up!

Be on the lookout for a verification email in your inbox.

You'll start receiving severe weather alerts in your inbox..

×

10-Day Weather Forecast

Almanac

Astronomy

Dec. 15, 2019 Rise Set
Actual Time
Civil Twilight
Nautical Twilight
Astronomical Twilight
Moon
Length of Visible Light
Length of Day
Tomorrow will be .
, % of the Moon is Illuminated

Today's Extremes

State Highs State Lows

Community

WunderPhotos

Category 6

Welcome to Category 6. This is the collective home for Weather Underground's featured writeups by Dr. Jeff Masters (right), Bob Henson (left), Chris Burt, and other regular contributors.

Nearby

Air Quality

  Air Quality AQ Index Pollutant
Not available.

Snow Depth

Station Depth Elevation

Earthquake Activity

City Distance Mag. Time & Date
Minimum magnitude displayed is 2.5.

Coastal Water Temperatures

Place Temperature

Stations

Nearby Weather Stations

Station Location Temp. Windchill Dew Point Humidity Wind Precip. Elev Updated Type
                   

Watches & Warnings

Winter Weather Advisory
Issued: 3:51 AM CST Dec. 15, 2019 – National Weather Service

... Winter Weather Advisory remains in effect until 6 PM CST
Monday...

* what... mixed precipitation expected. Total snow accumulations
of a dusting up to one inch and ice accumulations of up to one
tenth of an inch.

* Where... portions of southeast Kansas and south central and
southwest Missouri.

* When... from 6 am Sunday to 6 PM CST Monday. The main potential
impacts to roadways will be Sunday morning and again from late
Sunday night through Monday.

* Impacts... plan on slippery Road conditions. Wintry driving
conditions may impact the Monday morning and evening commutes.


Precautionary/preparedness actions...

Slow down and use caution while traveling.

In Kansas, Road conditions can be obtained by calling 5 1 1.